createdAt,value
2017-10-08T00:00:09.491Z,89.30
2017-10-08T00:02:43.460Z,89.10
2017-10-08T00:05:17.273Z,89.30
2017-10-08T00:07:51.786Z,88.90
2017-10-08T00:10:25.397Z,88.80
2017-10-08T00:12:59.014Z,89.00
2017-10-08T00:15:32.782Z,89.20
2017-10-08T00:18:06.584Z,89.20
2017-10-08T00:20:41.129Z,89.30
2017-10-08T00:23:14.894Z,89.30
2017-10-08T00:25:48.566Z,89.40
2017-10-08T00:28:22.178Z,89.30
2017-10-08T00:30:55.942Z,89.50
2017-10-08T03:44:41.846Z,88.20
2017-10-08T03:47:16.481Z,88.20
2017-10-08T03:49:50.096Z,88.20
2017-10-08T03:52:23.801Z,88.50
2017-10-08T03:54:57.544Z,88.50
2017-10-08T03:57:32.554Z,88.50
2017-10-08T04:00:07.772Z,88.50
2017-10-08T04:02:42.311Z,88.70
2017-10-08T04:05:16.650Z,88.70
2017-10-08T04:07:51.113Z,88.70
2017-10-08T04:10:25.206Z,89.00
2017-10-08T04:13:01.596Z,88.90
2017-10-08T04:15:35.396Z,88.50
2017-10-08T04:18:10.106Z,88.60
2017-10-08T04:20:44.049Z,88.80
2017-10-08T04:23:17.673Z,88.80
2017-10-08T04:25:51.459Z,88.80
2017-10-08T04:28:25.286Z,88.90
2017-10-08T04:30:59.683Z,88.90
2017-10-08T04:33:33.451Z,88.90
2017-10-08T04:36:07.290Z,89.10
2017-10-08T04:38:41.096Z,88.90
2017-10-08T04:41:14.865Z,89.10
2017-10-08T04:43:50.507Z,88.80
2017-10-08T04:46:24.291Z,88.60
2017-10-08T04:48:59.459Z,88.50
2017-10-08T04:51:38.979Z,88.50
2017-10-08T04:54:13.229Z,88.60
2017-10-08T04:56:49.281Z,88.90
2017-10-08T04:59:23.289Z,88.90
2017-10-08T05:01:58.002Z,89.10
2017-10-08T05:04:31.904Z,89.20
2017-10-08T05:07:05.626Z,89.40
2017-10-08T05:09:39.446Z,89.20
2017-10-08T05:12:13.128Z,89.40
2017-10-08T05:14:46.834Z,89.30
2017-10-08T05:17:20.602Z,89.40
2017-10-08T05:19:54.186Z,89.60
2017-10-08T05:22:27.839Z,89.40
2017-10-08T05:25:01.480Z,89.40
2017-10-08T05:27:35.417Z,89.10
2017-10-08T05:30:09.937Z,89.20
2017-10-08T05:32:43.729Z,89.10
2017-10-08T05:35:17.540Z,88.80
2017-10-08T05:37:51.270Z,88.70
2017-10-08T05:40:24.921Z,88.80
2017-10-08T05:42:58.605Z,88.80
2017-10-08T05:45:32.345Z,89.00
2017-10-08T05:48:06.061Z,89.30
2017-10-08T05:50:39.870Z,89.90
2017-10-08T05:53:13.578Z,90.00
2017-10-08T05:55:47.353Z,90.30
2017-10-08T05:58:21.183Z,90.50
2017-10-08T06:00:55.024Z,90.70
2017-10-08T06:03:30.041Z,90.80
2017-10-08T06:06:03.633Z,90.80
2017-10-08T06:08:37.337Z,90.90
2017-10-08T06:11:10.959Z,90.80
2017-10-08T06:13:45.461Z,91.00
2017-10-08T06:16:19.213Z,91.00
2017-10-08T06:18:52.881Z,90.20
2017-10-08T06:21:27.674Z,89.80
2017-10-08T06:24:01.357Z,90.10
2017-10-08T06:26:35.929Z,90.30
2017-10-08T06:29:10.519Z,90.20
2017-10-08T06:31:44.316Z,90.20
2017-10-08T06:34:18.066Z,90.30
2017-10-08T06:36:52.544Z,89.50
2017-10-08T06:39:26.346Z,89.30
2017-10-08T06:41:59.941Z,89.80
2017-10-08T06:44:33.731Z,89.70
2017-10-08T06:47:07.379Z,90.20
2017-10-08T06:49:41.081Z,90.10
2017-10-08T06:52:14.777Z,90.30
2017-10-08T06:54:48.670Z,90.30
2017-10-08T06:57:22.369Z,90.10
2017-10-08T06:59:56.129Z,89.90
2017-10-08T07:02:29.806Z,89.70
2017-10-08T07:05:03.578Z,89.40
2017-10-08T07:07:37.261Z,89.20
2017-10-08T07:10:12.111Z,88.50
2017-10-08T07:12:47.386Z,88.20
2017-10-08T07:15:21.257Z,88.10
2017-10-08T07:17:58.629Z,88.80
2017-10-08T07:20:34.160Z,88.70
2017-10-08T07:23:09.953Z,87.10
2017-10-08T07:25:45.681Z,86.60
2017-10-08T07:28:19.386Z,86.50
2017-10-08T07:30:53.169Z,86.00
2017-10-08T07:33:26.906Z,85.10
2017-10-08T07:36:01.508Z,86.10
2017-10-08T07:38:36.118Z,86.10
2017-10-08T07:41:10.572Z,86.40
2017-10-08T07:43:44.993Z,85.70
2017-10-08T07:46:18.765Z,85.60
2017-10-08T07:48:52.478Z,84.70
2017-10-08T07:51:27.821Z,84.50
2017-10-08T07:54:02.482Z,85.00
2017-10-08T07:56:36.077Z,85.00
2017-10-08T07:59:10.759Z,83.30
2017-10-08T08:01:44.338Z,83.70
2017-10-08T08:04:20.506Z,83.90
2017-10-08T08:06:55.057Z,84.50
2017-10-08T08:09:28.999Z,84.00
2017-10-08T08:12:04.326Z,84.50
2017-10-08T08:14:38.236Z,83.90
2017-10-08T08:17:12.038Z,82.90
2017-10-08T08:19:45.748Z,82.50
2017-10-08T08:22:19.499Z,81.80
2017-10-08T08:24:53.796Z,82.50
2017-10-08T08:27:27.525Z,82.60
2017-10-08T08:30:02.082Z,81.80
2017-10-08T08:32:35.706Z,81.80
2017-10-08T08:35:10.032Z,80.90
2017-10-08T08:37:43.761Z,78.70
2017-10-08T08:40:17.376Z,78.60
2017-10-08T08:42:51.113Z,79.30
2017-10-08T08:45:24.758Z,79.80
2017-10-08T08:47:58.501Z,79.70
2017-10-08T08:50:32.854Z,79.00
2017-10-08T08:53:06.610Z,79.60
2017-10-08T08:55:42.222Z,78.90
2017-10-08T08:58:17.894Z,78.00
2017-10-08T09:00:51.701Z,76.60
2017-10-08T09:03:25.467Z,77.60
2017-10-08T09:05:59.910Z,76.20
2017-10-08T09:08:33.538Z,76.20
2017-10-08T09:11:07.515Z,76.80
2017-10-08T09:13:41.237Z,74.60
2017-10-08T09:16:15.072Z,74.10
2017-10-08T09:18:49.622Z,72.70
2017-10-08T09:21:23.307Z,72.60
2017-10-08T09:23:57.945Z,73.60
2017-10-08T09:26:32.357Z,68.00
2017-10-08T09:29:06.367Z,67.80
2017-10-08T09:31:41.012Z,68.20
2017-10-08T09:34:14.730Z,70.10
2017-10-08T09:36:48.474Z,68.20
2017-10-08T09:39:22.306Z,67.60
2017-10-08T09:41:56.210Z,68.10
2017-10-08T09:44:29.924Z,67.90
2017-10-08T09:47:03.531Z,68.90
2017-10-08T09:49:37.337Z,67.70
2017-10-08T09:52:11.958Z,65.50
2017-10-08T09:54:45.688Z,65.50
2017-10-08T09:57:19.470Z,66.10
2017-10-08T09:59:54.021Z,65.70
2017-10-08T10:02:27.748Z,64.80
2017-10-08T10:05:01.791Z,65.00
2017-10-08T10:07:35.595Z,64.40
2017-10-08T10:10:09.443Z,63.50
2017-10-08T10:12:44.365Z,62.00
2017-10-08T10:15:18.938Z,59.80
2017-10-08T10:17:52.645Z,59.80
2017-10-08T10:20:26.417Z,59.40
2017-10-08T10:23:00.104Z,59.60
2017-10-08T10:25:33.868Z,58.10
2017-10-08T10:28:07.688Z,56.80
2017-10-08T10:30:43.010Z,56.40
2017-10-08T10:33:17.539Z,57.30
2017-10-08T10:35:51.337Z,57.30
2017-10-08T10:38:25.081Z,57.70
2017-10-08T10:40:58.993Z,56.80
2017-10-08T10:43:32.780Z,56.20
2017-10-08T10:46:06.461Z,55.60
2017-10-08T10:48:40.376Z,55.10
2017-10-08T10:51:14.110Z,53.60
2017-10-08T10:53:47.921Z,53.80
2017-10-08T10:56:21.725Z,53.70
2017-10-08T10:58:55.405Z,53.10
2017-10-08T11:01:31.361Z,54.30
2017-10-08T11:04:05.996Z,53.30
2017-10-08T11:06:40.054Z,53.50
2017-10-08T11:09:16.060Z,53.40
2017-10-08T11:11:49.778Z,53.50
2017-10-08T11:14:23.549Z,53.70
2017-10-08T11:16:59.740Z,53.80
2017-10-08T11:19:34.119Z,52.50
2017-10-08T11:22:07.862Z,51.90
2017-10-08T11:24:42.987Z,51.60
2017-10-08T11:27:17.649Z,52.00
2017-10-08T11:29:52.151Z,52.10
2017-10-08T11:32:25.957Z,52.10
2017-10-08T11:34:59.790Z,51.40
2017-10-08T11:37:35.473Z,51.70
2017-10-08T11:40:09.143Z,51.60
2017-10-08T11:42:43.479Z,52.00
2017-10-08T11:45:17.195Z,52.10
2017-10-08T11:47:51.098Z,52.80
2017-10-08T11:50:25.490Z,54.10
2017-10-08T11:52:59.269Z,54.70
2017-10-08T11:55:32.851Z,55.30
2017-10-08T11:58:07.325Z,54.10
2017-10-08T12:00:41.710Z,53.30
2017-10-08T12:03:15.584Z,53.20
2017-10-08T12:05:50.170Z,52.90
2017-10-08T12:08:23.898Z,52.80
2017-10-08T12:10:58.137Z,53.20
2017-10-08T12:13:37.934Z,53.90
2017-10-08T12:16:12.689Z,53.80
2017-10-08T12:18:50.986Z,53.40
2017-10-08T12:21:24.664Z,53.20
2017-10-08T12:23:59.749Z,52.60
2017-10-08T12:26:34.630Z,52.60
2017-10-08T12:29:08.784Z,52.90
2017-10-08T12:31:42.527Z,51.50
2017-10-08T12:34:16.276Z,51.80
2017-10-08T12:36:52.119Z,51.10
2017-10-08T12:39:26.144Z,49.40
2017-10-08T12:41:59.749Z,49.00
2017-10-08T12:44:33.658Z,46.20
2017-10-08T12:47:07.273Z,44.80
2017-10-08T12:49:41.068Z,42.70
2017-10-08T12:52:14.841Z,41.60
2017-10-08T12:54:48.713Z,41.60
2017-10-08T12:57:22.475Z,39.00
2017-10-08T12:59:56.185Z,38.90
2017-10-08T13:02:30.791Z,38.00
2017-10-08T13:05:05.461Z,38.00
2017-10-08T13:07:39.153Z,36.80
2017-10-08T13:10:12.939Z,35.60
2017-10-08T13:12:47.577Z,36.00
2017-10-08T13:15:21.293Z,36.50
2017-10-08T13:17:55.396Z,36.80
2017-10-08T13:20:29.092Z,39.70
2017-10-08T13:23:02.826Z,42.10
2017-10-08T13:25:36.589Z,44.30
2017-10-08T13:28:10.410Z,45.00
2017-10-08T13:30:44.249Z,45.10
2017-10-08T13:33:18.824Z,45.90
2017-10-08T13:35:52.651Z,45.70
2017-10-08T13:38:26.407Z,45.60
2017-10-08T13:41:00.134Z,46.30
2017-10-08T13:43:33.953Z,45.70
2017-10-08T13:46:07.720Z,44.30
2017-10-08T13:48:41.526Z,42.80
2017-10-08T13:51:15.260Z,40.80
2017-10-08T13:53:48.875Z,42.70
2017-10-08T13:56:22.640Z,41.60
2017-10-08T13:58:56.433Z,39.80
2017-10-08T14:01:30.773Z,38.50
2017-10-08T14:04:05.525Z,38.00
2017-10-08T14:06:39.279Z,35.90
2017-10-08T14:09:13.303Z,34.00
2017-10-08T14:11:47.518Z,33.40
2017-10-08T14:14:21.254Z,33.20
2017-10-08T14:16:55.050Z,34.00
2017-10-08T14:19:28.781Z,37.20
2017-10-08T14:22:02.561Z,39.40
2017-10-08T14:24:36.475Z,40.70
2017-10-08T14:27:10.173Z,42.60
2017-10-08T14:29:44.033Z,44.10
2017-10-08T14:32:17.876Z,44.70
2017-10-08T14:34:52.514Z,43.80
2017-10-08T14:37:26.241Z,43.80
2017-10-08T14:39:59.951Z,44.40
2017-10-08T14:42:33.731Z,44.70
2017-10-08T14:45:08.961Z,44.80
2017-10-08T14:47:42.632Z,45.40
2017-10-08T14:50:17.194Z,46.00
2017-10-08T14:52:51.005Z,46.00
2017-10-08T14:55:25.093Z,45.90
2017-10-08T14:57:58.882Z,46.00
2017-10-08T15:00:32.601Z,46.60
2017-10-08T15:03:06.358Z,46.80
2017-10-08T15:05:40.823Z,47.70
2017-10-08T15:08:14.632Z,48.50
2017-10-08T15:10:48.272Z,49.40
2017-10-08T15:13:23.444Z,50.90
2017-10-08T15:15:59.643Z,51.90
2017-10-08T15:18:33.198Z,51.90
2017-10-08T15:21:07.211Z,52.60
2017-10-08T15:23:40.810Z,53.20
2017-10-08T15:26:14.502Z,54.00
2017-10-08T15:28:48.304Z,52.00
2017-10-08T15:31:22.793Z,48.70
2017-10-08T15:33:57.371Z,48.60
2017-10-08T15:36:31.033Z,50.00
2017-10-08T15:39:04.749Z,50.20
2017-10-08T15:41:39.507Z,49.90
2017-10-08T15:44:13.186Z,50.10
2017-10-08T15:46:47.589Z,49.70
2017-10-08T15:49:21.345Z,52.10
2017-10-08T15:51:55.928Z,53.60
2017-10-08T15:54:29.537Z,54.30
2017-10-08T15:57:04.101Z,55.30
2017-10-08T15:59:38.499Z,56.60
2017-10-08T16:02:13.716Z,57.20
2017-10-08T16:04:47.450Z,57.70
2017-10-08T16:07:21.924Z,59.80
2017-10-08T16:09:55.689Z,59.80
2017-10-08T16:12:30.565Z,60.90
2017-10-08T16:15:04.332Z,60.90
2017-10-08T16:17:38.746Z,61.60
2017-10-08T16:20:12.548Z,62.40
2017-10-08T16:22:46.361Z,63.00
2017-10-08T16:25:21.111Z,63.60
2017-10-08T16:27:55.012Z,64.10
2017-10-08T16:30:29.822Z,65.00
2017-10-08T16:33:03.579Z,65.50
2017-10-08T16:35:37.703Z,66.10
2017-10-08T16:38:11.406Z,66.60
2017-10-08T16:40:46.929Z,67.20
2017-10-08T16:43:21.522Z,67.80
2017-10-08T16:45:55.069Z,68.00
2017-10-08T16:48:28.671Z,68.80
2017-10-08T16:51:07.778Z,68.70
2017-10-08T16:53:41.612Z,69.00
2017-10-08T16:56:18.254Z,69.80
2017-10-08T16:58:54.580Z,71.00
2017-10-08T17:01:29.074Z,71.00
2017-10-08T17:04:04.473Z,71.60
2017-10-08T17:06:38.084Z,71.80
2017-10-08T17:09:13.826Z,72.60
2017-10-08T17:11:48.313Z,72.60
2017-10-08T17:14:22.070Z,72.80
2017-10-08T17:16:57.224Z,73.40
2017-10-08T17:19:30.957Z,73.70
2017-10-08T17:22:04.845Z,74.20
2017-10-08T17:24:38.537Z,74.50
2017-10-08T17:27:12.401Z,74.60
2017-10-08T17:29:47.202Z,75.10
2017-10-08T17:32:20.969Z,75.50
2017-10-08T17:34:54.825Z,76.10
2017-10-08T17:37:28.574Z,76.60
2017-10-08T17:40:02.295Z,76.50
2017-10-08T17:42:36.087Z,76.50
2017-10-08T17:45:09.921Z,77.10
2017-10-08T17:47:43.569Z,76.90
2017-10-08T17:50:17.260Z,77.20
2017-10-08T17:52:50.866Z,77.60
2017-10-08T17:55:25.276Z,78.20
2017-10-08T17:57:59.065Z,78.00
2017-10-08T18:00:33.662Z,78.00
2017-10-08T18:03:07.584Z,77.90
2017-10-08T18:05:41.174Z,78.30
2017-10-08T18:08:21.112Z,78.50
2017-10-08T18:10:54.797Z,78.40
2017-10-08T18:13:28.421Z,79.10
2017-10-08T18:16:03.190Z,79.20
2017-10-08T18:18:36.893Z,79.20
2017-10-08T18:21:11.369Z,79.20
2017-10-08T18:23:45.734Z,79.10
2017-10-08T18:26:21.007Z,79.80
2017-10-08T18:28:54.633Z,79.90
2017-10-08T18:31:28.245Z,79.70
2017-10-08T18:34:02.159Z,79.80
2017-10-08T18:36:36.209Z,80.10
2017-10-08T18:39:09.978Z,80.50
2017-10-08T18:41:45.259Z,80.80
2017-10-08T18:44:19.021Z,81.60
2017-10-08T18:46:52.793Z,82.00
2017-10-08T18:49:26.523Z,82.10
2017-10-08T18:52:00.194Z,82.30
2017-10-08T18:54:33.970Z,82.30
2017-10-08T18:57:07.782Z,82.10
2017-10-08T18:59:42.126Z,82.20
2017-10-08T19:02:15.978Z,82.20
2017-10-08T19:04:50.433Z,82.40
2017-10-08T19:07:24.887Z,82.40
2017-10-08T19:10:09.931Z,82.40
2017-10-08T19:12:45.295Z,83.00
2017-10-08T19:15:18.865Z,82.90
2017-10-08T19:17:52.624Z,82.50
2017-10-08T19:20:26.318Z,82.20
2017-10-08T19:23:00.086Z,81.80
2017-10-08T19:25:33.872Z,81.50
2017-10-08T19:28:08.276Z,82.00
2017-10-08T19:30:42.134Z,81.30
2017-10-08T19:33:15.964Z,81.50
2017-10-08T19:35:49.871Z,81.40
2017-10-08T19:38:23.748Z,81.10
2017-10-08T19:40:57.402Z,81.00
2017-10-08T19:43:31.117Z,80.70
2017-10-08T19:46:05.641Z,81.00
2017-10-08T19:48:39.257Z,81.00
2017-10-08T19:51:13.821Z,81.20
2017-10-08T19:53:48.610Z,81.90
2017-10-08T19:56:22.274Z,81.50
2017-10-08T19:58:56.043Z,82.20
2017-10-08T20:01:30.065Z,82.30
2017-10-08T20:04:04.902Z,82.60
2017-10-08T20:06:38.991Z,82.80
2017-10-08T20:09:12.738Z,83.30
2017-10-08T20:11:48.167Z,83.00
2017-10-08T20:14:21.909Z,82.90
2017-10-08T20:16:56.270Z,82.60
2017-10-08T20:19:30.094Z,82.80
2017-10-08T20:22:03.942Z,82.90
2017-10-08T20:24:37.620Z,82.50
2017-10-08T20:27:11.421Z,82.30
2017-10-08T20:29:46.760Z,82.50
2017-10-08T20:32:21.075Z,82.80
2017-10-08T20:34:54.930Z,82.90
2017-10-08T20:37:28.818Z,83.50
2017-10-08T20:40:03.699Z,83.60
2017-10-08T20:42:37.714Z,83.80
2017-10-08T20:45:12.516Z,83.70
2017-10-08T20:47:46.324Z,83.60
2017-10-08T20:50:20.850Z,83.80
2017-10-08T20:52:54.674Z,83.70
2017-10-08T20:55:28.364Z,84.20
2017-10-08T20:58:02.091Z,84.20
2017-10-08T21:00:35.708Z,84.20
2017-10-08T21:03:09.317Z,83.50
2017-10-08T21:05:43.186Z,83.50
2017-10-08T21:08:17.679Z,83.20
2017-10-08T21:10:51.423Z,83.10
2017-10-08T21:13:25.677Z,83.00
2017-10-08T21:15:59.477Z,82.80
2017-10-08T21:18:33.266Z,83.00
2017-10-08T21:21:07.817Z,82.90
2017-10-08T21:23:41.492Z,83.00
2017-10-08T21:26:15.222Z,82.80
2017-10-08T21:28:49.546Z,82.80
2017-10-08T21:31:23.257Z,82.30
2017-10-08T21:33:57.857Z,81.70
2017-10-08T21:36:31.614Z,81.40
2017-10-08T21:39:06.097Z,81.60
2017-10-08T21:41:40.572Z,81.50
2017-10-08T21:44:15.100Z,81.50
2017-10-08T21:46:49.082Z,81.70
2017-10-08T21:49:24.383Z,82.30
2017-10-08T21:51:59.831Z,82.50
2017-10-08T21:54:33.671Z,82.50
2017-10-08T21:57:09.667Z,83.60
2017-10-08T21:59:43.425Z,83.60
2017-10-08T22:02:17.225Z,83.60
2017-10-08T22:04:50.993Z,83.90
2017-10-08T22:07:25.659Z,84.20
2017-10-08T22:09:59.436Z,84.10
2017-10-08T22:12:33.141Z,83.90
2017-10-08T22:15:07.665Z,83.10
2017-10-08T22:17:42.332Z,83.10
2017-10-08T22:20:15.958Z,82.80
2017-10-08T22:22:50.629Z,82.80
2017-10-08T22:25:24.701Z,82.40
2017-10-08T22:27:58.349Z,82.50
2017-10-08T22:30:32.017Z,82.20
2017-10-08T22:33:06.486Z,82.20
2017-10-08T22:35:40.896Z,82.00
2017-10-08T22:38:14.537Z,82.00
2017-10-08T22:40:48.318Z,82.00
2017-10-08T22:43:22.934Z,82.00
2017-10-08T22:45:57.322Z,82.10
2017-10-08T22:48:31.885Z,82.10
2017-10-08T22:51:05.730Z,82.10
2017-10-08T22:53:40.063Z,82.10
2017-10-08T22:56:13.642Z,82.30
2017-10-08T22:58:47.498Z,82.40
2017-10-08T23:01:22.114Z,82.30
2017-10-08T23:03:56.486Z,82.20
2017-10-08T23:06:30.094Z,82.90
2017-10-08T23:09:03.853Z,82.40
2017-10-08T23:11:37.602Z,82.40
2017-10-08T23:14:12.402Z,82.40
2017-10-08T23:16:46.178Z,82.50
2017-10-08T23:19:19.820Z,82.70
2017-10-08T23:21:53.677Z,82.50
2017-10-08T23:24:28.208Z,82.80
2017-10-08T23:27:02.534Z,83.00
2017-10-08T23:29:36.390Z,82.90
2017-10-08T23:32:09.998Z,83.30
2017-10-08T23:34:43.813Z,83.20
2017-10-08T23:37:17.515Z,83.00
2017-10-08T23:39:51.262Z,82.80
2017-10-08T23:42:24.998Z,82.90
2017-10-08T23:44:58.675Z,82.70
2017-10-08T23:47:32.859Z,82.90
2017-10-08T23:50:06.629Z,82.80
2017-10-08T23:52:40.946Z,83.10
2017-10-08T23:55:15.328Z,83.30
2017-10-08T23:57:49.699Z,83.20
